createdAt,value
2022-07-26T00:00:13.485Z,24.55
2022-07-26T00:01:13.698Z,24.54
2022-07-26T00:02:18.267Z,24.54
2022-07-26T00:03:13.974Z,24.54
2022-07-26T00:04:14.136Z,24.53
2022-07-26T00:05:14.296Z,24.54
2022-07-26T00:06:14.456Z,24.50
2022-07-26T00:07:14.616Z,24.50
2022-07-26T00:08:14.779Z,24.48
2022-07-26T00:09:14.938Z,24.50
2022-07-26T00:10:15.105Z,24.48
2022-07-26T00:11:15.257Z,24.51
2022-07-26T00:12:15.460Z,24.50
2022-07-26T00:13:15.636Z,24.50
2022-07-26T00:14:15.846Z,24.50
2022-07-26T00:15:15.997Z,24.51
2022-07-26T00:16:16.288Z,24.50
2022-07-26T00:17:16.367Z,24.48
2022-07-26T00:18:16.529Z,24.50
2022-07-26T00:19:16.696Z,24.51
2022-07-26T00:20:16.858Z,24.50
2022-07-26T00:21:17.020Z,24.50
2022-07-26T00:22:17.178Z,24.47
2022-07-26T00:23:17.327Z,24.45
2022-07-26T00:24:17.538Z,24.42
2022-07-26T00:25:17.696Z,24.40
2022-07-26T00:26:17.887Z,24.40
2022-07-26T00:27:18.047Z,24.39
2022-07-26T00:28:18.209Z,24.38
2022-07-26T00:29:18.386Z,24.38
2022-07-26T00:30:18.558Z,24.40
2022-07-26T00:31:18.830Z,24.40
2022-07-26T00:32:18.898Z,24.42
2022-07-26T00:33:19.061Z,24.42
2022-07-26T00:34:19.236Z,24.43
2022-07-26T00:35:19.390Z,24.42
2022-07-26T00:36:19.548Z,24.42
2022-07-26T00:37:20.473Z,24.40
2022-07-26T00:38:19.870Z,24.40
2022-07-26T00:39:20.040Z,24.40
2022-07-26T00:40:20.206Z,24.42
2022-07-26T00:41:20.359Z,24.40
2022-07-26T00:42:20.558Z,24.39
2022-07-26T00:43:20.709Z,24.40
2022-07-26T00:44:20.921Z,24.42
2022-07-26T00:45:21.079Z,24.42
2022-07-26T00:46:21.416Z,24.40
2022-07-26T00:47:21.413Z,24.42
2022-07-26T00:48:21.625Z,24.40
2022-07-26T00:49:21.879Z,24.42
2022-07-26T00:50:21.940Z,24.42
2022-07-26T00:51:22.100Z,24.42
2022-07-26T00:52:22.272Z,24.42
2022-07-26T00:53:22.431Z,24.40
2022-07-26T00:54:22.611Z,24.39
2022-07-26T00:55:22.770Z,24.39
2022-07-26T00:56:22.932Z,24.40
2022-07-26T00:57:23.091Z,24.36
2022-07-26T00:58:23.252Z,24.33
2022-07-26T00:59:23.422Z,24.32
2022-07-26T01:00:23.592Z,24.29
2022-07-26T01:01:23.828Z,24.28
2022-07-26T01:02:24.007Z,24.29
2022-07-26T01:03:24.084Z,24.28
2022-07-26T01:04:25.283Z,24.28
2022-07-26T01:05:24.434Z,24.26
2022-07-26T01:06:27.347Z,24.24
2022-07-26T01:07:24.763Z,24.26
2022-07-26T01:08:24.962Z,24.24
2022-07-26T01:09:25.140Z,24.24
2022-07-26T01:10:25.305Z,24.23
2022-07-26T01:11:25.453Z,24.23
2022-07-26T01:12:25.624Z,24.18
2022-07-26T01:13:25.773Z,24.18
2022-07-26T01:14:25.984Z,24.20
2022-07-26T01:15:26.142Z,24.16
2022-07-26T01:16:26.351Z,24.14
2022-07-26T01:17:26.494Z,24.16
2022-07-26T01:18:26.654Z,24.16
2022-07-26T01:19:26.824Z,24.14
2022-07-26T01:20:26.994Z,24.14
2022-07-26T01:21:27.155Z,24.13
2022-07-26T01:22:27.315Z,24.16
2022-07-26T01:23:27.474Z,24.14
2022-07-26T01:24:27.644Z,24.14
2022-07-26T01:25:27.804Z,24.11
2022-07-26T01:26:27.974Z,24.10
2022-07-26T01:27:33.552Z,24.08
2022-07-26T01:28:29.294Z,24.05
2022-07-26T01:29:36.128Z,24.08
2022-07-26T01:30:29.636Z,24.06
2022-07-26T01:31:28.863Z,24.05
2022-07-26T01:32:28.994Z,24.03
2022-07-26T01:33:29.145Z,24.05
2022-07-26T01:34:29.355Z,24.05
2022-07-26T01:35:29.513Z,24.06
2022-07-26T01:36:29.706Z,24.05
2022-07-26T01:37:29.865Z,24.05
2022-07-26T01:38:30.064Z,24.05
2022-07-26T01:39:30.229Z,24.05
2022-07-26T01:40:30.388Z,24.06
2022-07-26T01:41:38.169Z,24.05
2022-07-26T01:42:31.726Z,24.05
2022-07-26T01:43:30.907Z,24.03
2022-07-26T01:44:31.116Z,24.01
2022-07-26T01:45:31.319Z,24.01
2022-07-26T01:46:31.457Z,24.02
2022-07-26T01:47:31.617Z,23.99
2022-07-26T01:48:31.845Z,24.01
2022-07-26T01:49:31.946Z,23.98
2022-07-26T01:50:32.107Z,23.99
2022-07-26T01:51:32.267Z,23.99
2022-07-26T01:52:32.427Z,24.01
2022-07-26T01:53:32.586Z,24.01
2022-07-26T01:54:32.767Z,23.98
2022-07-26T01:55:32.921Z,23.99
2022-07-26T01:56:33.091Z,23.98
2022-07-26T01:57:33.257Z,23.98
2022-07-26T01:58:33.409Z,23.96
2022-07-26T01:59:33.577Z,23.95
2022-07-26T02:00:33.738Z,23.95
2022-07-26T02:01:38.353Z,23.95
2022-07-26T02:02:35.313Z,23.93
2022-07-26T02:03:34.256Z,23.93
2022-07-26T02:04:34.427Z,23.93
2022-07-26T02:05:34.591Z,23.92
2022-07-26T02:06:34.748Z,23.93
2022-07-26T02:07:34.909Z,23.93
2022-07-26T02:08:35.098Z,23.92
2022-07-26T02:09:39.541Z,23.92
2022-07-26T02:10:35.458Z,23.91
2022-07-26T02:11:35.619Z,23.91
2022-07-26T02:12:35.778Z,23.87
2022-07-26T02:13:35.939Z,23.87
2022-07-26T02:14:36.109Z,23.87
2022-07-26T02:15:36.290Z,23.86
2022-07-26T02:16:36.430Z,23.84
2022-07-26T02:17:36.589Z,23.81
2022-07-26T02:18:36.750Z,23.83
2022-07-26T02:19:36.931Z,23.81
2022-07-26T02:20:37.089Z,23.80
2022-07-26T02:21:37.250Z,23.78
2022-07-26T02:22:37.413Z,23.78
2022-07-26T02:23:41.281Z,23.76
2022-07-26T02:24:37.747Z,23.73
2022-07-26T02:25:37.902Z,23.74
2022-07-26T02:26:38.071Z,23.69
2022-07-26T02:27:38.222Z,23.69
2022-07-26T02:28:38.432Z,23.65
2022-07-26T02:29:38.606Z,23.62
2022-07-26T02:30:39.431Z,23.61
2022-07-26T02:31:38.954Z,23.58
2022-07-26T02:32:39.098Z,23.56
2022-07-26T02:33:39.251Z,23.51
2022-07-26T02:34:39.431Z,23.48
2022-07-26T02:35:39.592Z,23.44
2022-07-26T02:36:39.760Z,23.44
2022-07-26T02:37:43.534Z,23.41
2022-07-26T02:38:40.109Z,23.40
2022-07-26T02:39:40.284Z,23.37
2022-07-26T02:40:40.443Z,23.32
2022-07-26T02:41:40.602Z,23.32
2022-07-26T02:42:40.763Z,23.28
2022-07-26T02:43:40.925Z,23.25
2022-07-26T02:44:41.101Z,23.23
2022-07-26T02:45:41.252Z,23.20
2022-07-26T02:46:41.555Z,23.18
2022-07-26T02:47:41.632Z,23.17
2022-07-26T02:48:41.825Z,23.15
2022-07-26T02:49:41.973Z,23.13
2022-07-26T02:50:42.133Z,23.12
2022-07-26T02:51:42.284Z,23.10
2022-07-26T02:52:42.465Z,23.09
2022-07-26T02:53:42.624Z,23.09
2022-07-26T02:54:42.823Z,23.08
2022-07-26T02:55:42.964Z,23.06
2022-07-26T02:56:43.154Z,23.03
2022-07-26T02:57:46.099Z,23.02
2022-07-26T02:58:43.511Z,23.00
2022-07-26T02:59:43.694Z,22.98
2022-07-26T03:00:43.882Z,22.99
2022-07-26T03:01:44.111Z,22.96
2022-07-26T03:02:44.291Z,22.94
2022-07-26T03:03:50.127Z,22.94
2022-07-26T03:04:45.603Z,22.90
2022-07-26T03:05:44.757Z,22.88
2022-07-26T03:06:44.945Z,22.88
2022-07-26T03:07:45.125Z,22.87
2022-07-26T03:08:45.305Z,22.85
2022-07-26T03:09:45.474Z,22.85
2022-07-26T03:10:45.625Z,22.85
2022-07-26T03:11:45.805Z,22.81
2022-07-26T03:12:45.986Z,22.81
2022-07-26T03:13:46.169Z,22.80
2022-07-26T03:14:46.375Z,22.78
2022-07-26T03:15:46.553Z,22.76
2022-07-26T03:16:46.675Z,22.76
2022-07-26T03:17:46.825Z,22.73
2022-07-26T03:18:47.017Z,22.72
2022-07-26T03:19:47.226Z,22.73
2022-07-26T03:20:47.378Z,22.70
2022-07-26T03:21:47.566Z,22.69
2022-07-26T03:22:47.716Z,22.69
2022-07-26T03:23:47.908Z,22.68
2022-07-26T03:24:48.087Z,22.66
2022-07-26T03:25:48.237Z,22.65
2022-07-26T03:26:48.388Z,22.63
2022-07-26T03:27:48.587Z,22.60
2022-07-26T03:28:48.765Z,22.62
2022-07-26T03:29:48.956Z,22.62
2022-07-26T03:30:49.134Z,22.59
2022-07-26T03:31:49.265Z,22.59
2022-07-26T03:32:49.456Z,22.60
2022-07-26T03:33:49.651Z,22.59
2022-07-26T03:34:49.820Z,22.60
2022-07-26T03:35:49.967Z,22.59
2022-07-26T03:36:50.165Z,22.59
2022-07-26T03:37:50.307Z,22.60
2022-07-26T03:38:50.467Z,22.59
2022-07-26T03:39:50.667Z,22.60
2022-07-26T03:40:50.807Z,22.62
2022-07-26T03:41:50.998Z,22.63
2022-07-26T03:42:51.188Z,22.62
2022-07-26T03:43:51.377Z,22.65
2022-07-26T03:44:51.548Z,22.65
2022-07-26T03:45:54.478Z,22.66
2022-07-26T03:46:51.869Z,22.66
2022-07-26T03:47:52.059Z,22.69
2022-07-26T03:48:52.271Z,22.68
2022-07-26T03:49:52.418Z,22.68
2022-07-26T03:50:52.569Z,22.70
2022-07-26T03:51:52.728Z,22.73
2022-07-26T03:52:52.887Z,22.72
2022-07-26T03:53:53.057Z,22.73
2022-07-26T03:54:53.233Z,22.76
2022-07-26T03:55:53.392Z,22.76
2022-07-26T03:56:53.555Z,22.80
2022-07-26T03:57:53.723Z,22.81
2022-07-26T03:58:53.871Z,22.84
2022-07-26T03:59:54.074Z,22.84
2022-07-26T04:00:54.219Z,22.87
2022-07-26T04:01:54.466Z,22.88
2022-07-26T04:02:54.675Z,22.91
2022-07-26T04:03:54.768Z,22.93
2022-07-26T04:04:54.958Z,22.96
2022-07-26T04:05:55.111Z,22.98
2022-07-26T04:06:55.289Z,22.98
2022-07-26T04:07:55.833Z,22.98
2022-07-26T04:08:55.629Z,23.00
2022-07-26T04:09:55.829Z,23.02
2022-07-26T04:10:55.975Z,23.03
2022-07-26T04:11:56.159Z,23.02
2022-07-26T04:12:56.310Z,23.00
2022-07-26T04:13:56.498Z,23.03
2022-07-26T04:14:56.690Z,23.05
2022-07-26T04:15:56.840Z,23.08
2022-07-26T04:16:57.057Z,23.08
2022-07-26T04:17:57.219Z,23.09
2022-07-26T04:18:57.391Z,23.10
2022-07-26T04:19:57.590Z,23.13
2022-07-26T04:20:57.731Z,23.13
2022-07-26T04:21:57.911Z,23.17
2022-07-26T04:22:58.091Z,23.17
2022-07-26T04:23:58.283Z,23.15
2022-07-26T04:24:58.481Z,23.17
2022-07-26T04:25:58.655Z,23.17
2022-07-26T04:26:58.830Z,23.15
2022-07-26T04:27:59.013Z,23.18
2022-07-26T04:28:59.193Z,23.18
2022-07-26T04:29:59.571Z,23.20
2022-07-26T04:30:59.576Z,23.25
2022-07-26T04:31:59.732Z,23.23
2022-07-26T04:32:59.924Z,23.23
2022-07-26T04:34:00.101Z,23.24
2022-07-26T04:35:00.315Z,23.25
2022-07-26T04:36:00.456Z,23.32
2022-07-26T04:37:00.701Z,23.34
2022-07-26T04:38:00.828Z,23.36
2022-07-26T04:39:01.003Z,23.41
2022-07-26T04:40:01.193Z,23.44
2022-07-26T04:41:01.342Z,23.47
2022-07-26T04:42:01.529Z,23.51
2022-07-26T04:43:01.705Z,23.56
2022-07-26T04:44:01.897Z,23.59
2022-07-26T04:45:07.471Z,23.62
2022-07-26T04:46:03.321Z,23.65
2022-07-26T04:47:02.415Z,23.69
2022-07-26T04:48:02.614Z,23.74
2022-07-26T04:49:02.848Z,23.78
2022-07-26T04:50:02.976Z,23.84
2022-07-26T04:51:03.112Z,23.91
2022-07-26T04:52:03.294Z,23.95
2022-07-26T04:53:03.474Z,24.02
2022-07-26T04:54:03.661Z,24.05
2022-07-26T04:55:03.866Z,24.08
2022-07-26T04:56:04.004Z,24.16
2022-07-26T04:57:04.192Z,24.18
2022-07-26T04:58:04.372Z,24.21
2022-07-26T04:59:04.544Z,24.26
2022-07-26T05:00:20.874Z,24.30
2022-07-26T05:01:10.460Z,24.33
2022-07-26T05:02:06.187Z,24.35
2022-07-26T05:03:05.364Z,24.35
2022-07-26T05:04:05.509Z,24.38
2022-07-26T05:05:05.614Z,24.40
2022-07-26T05:06:05.795Z,24.42
2022-07-26T05:07:05.976Z,24.39
2022-07-26T05:08:06.163Z,24.40
2022-07-26T05:09:06.336Z,24.40
2022-07-26T05:10:06.525Z,24.42
2022-07-26T05:11:06.720Z,24.47
2022-07-26T05:12:06.865Z,24.50
2022-07-26T05:13:07.044Z,24.51
2022-07-26T05:14:07.500Z,24.54
2022-07-26T05:15:09.417Z,24.57
2022-07-26T05:16:12.001Z,24.60
2022-07-26T05:17:08.682Z,24.70
2022-07-26T05:18:08.215Z,24.78
2022-07-26T05:19:08.116Z,24.88
2022-07-26T05:20:08.326Z,24.98
2022-07-26T05:21:08.469Z,25.08
2022-07-26T05:22:08.647Z,25.14
2022-07-26T05:23:08.827Z,25.22
2022-07-26T05:24:09.488Z,25.28
2022-07-26T05:25:09.201Z,25.31
2022-07-26T05:26:09.347Z,25.33
2022-07-26T05:27:09.526Z,25.40
2022-07-26T05:28:09.708Z,25.44
2022-07-26T05:29:09.889Z,25.53
2022-07-26T05:30:10.088Z,25.66
2022-07-26T05:31:10.347Z,25.84
2022-07-26T05:32:10.410Z,26.06
2022-07-26T05:33:10.579Z,26.40
2022-07-26T05:34:11.992Z,26.80
2022-07-26T05:35:10.948Z,27.15
2022-07-26T05:36:11.118Z,27.45
2022-07-26T05:37:11.306Z,27.77
2022-07-26T05:38:11.479Z,28.17
2022-07-26T05:39:15.746Z,28.60
2022-07-26T05:40:11.839Z,28.94
2022-07-26T05:41:11.979Z,29.27
2022-07-26T05:42:12.165Z,29.54
2022-07-26T05:43:12.330Z,29.86
2022-07-26T05:44:12.503Z,30.12
2022-07-26T05:45:12.700Z,30.32
2022-07-26T05:46:12.957Z,30.51
2022-07-26T05:47:13.041Z,30.78
2022-07-26T05:48:13.231Z,31.12
2022-07-26T05:49:13.468Z,31.39
2022-07-26T05:50:13.600Z,31.64
2022-07-26T05:51:13.779Z,31.81
2022-07-26T05:52:13.941Z,31.90
2022-07-26T05:53:14.121Z,31.99
2022-07-26T05:54:14.307Z,32.14
2022-07-26T05:55:14.494Z,32.38
2022-07-26T05:56:14.670Z,32.63
2022-07-26T05:57:14.842Z,32.89
2022-07-26T05:58:15.032Z,33.19
2022-07-26T05:59:15.203Z,33.34
2022-07-26T06:00:15.413Z,33.43
2022-07-26T06:01:15.554Z,33.42
2022-07-26T06:02:15.823Z,33.45
2022-07-26T06:03:15.884Z,33.65
2022-07-26T06:04:16.104Z,33.89
2022-07-26T06:05:16.276Z,34.14
2022-07-26T06:06:16.427Z,34.33
2022-07-26T06:07:16.596Z,34.43
2022-07-26T06:08:16.784Z,34.54
2022-07-26T06:09:16.963Z,34.58
2022-07-26T06:10:17.168Z,34.62
2022-07-26T06:11:17.305Z,34.67
2022-07-26T06:12:17.495Z,34.66
2022-07-26T06:13:17.687Z,34.57
2022-07-26T06:14:17.855Z,34.51
2022-07-26T06:15:18.045Z,34.40
2022-07-26T06:16:18.204Z,34.35
2022-07-26T06:17:18.451Z,34.11
2022-07-26T06:18:18.546Z,33.87
2022-07-26T06:19:18.707Z,33.59
2022-07-26T06:20:18.896Z,33.34
2022-07-26T06:21:19.057Z,33.24
2022-07-26T06:22:19.218Z,33.28
2022-07-26T06:23:33.769Z,33.30
2022-07-26T06:24:20.570Z,33.32
2022-07-26T06:25:19.744Z,33.31
2022-07-26T06:26:19.902Z,33.20
2022-07-26T06:27:20.070Z,33.12
2022-07-26T06:28:20.249Z,33.02
2022-07-26T06:29:20.419Z,33.01
2022-07-26T06:30:20.590Z,33.01
2022-07-26T06:31:20.807Z,33.00
2022-07-26T06:32:20.951Z,32.95
2022-07-26T06:33:21.107Z,32.89
2022-07-26T06:34:21.290Z,32.90
2022-07-26T06:35:21.479Z,32.90
2022-07-26T06:36:21.633Z,32.90
2022-07-26T06:37:21.800Z,33.04
2022-07-26T06:38:21.980Z,33.15
2022-07-26T06:39:22.160Z,33.30
2022-07-26T06:40:22.371Z,33.46
2022-07-26T06:41:22.513Z,33.57
2022-07-26T06:42:22.700Z,33.71
2022-07-26T06:43:22.873Z,33.83
2022-07-26T06:44:23.103Z,33.99
2022-07-26T06:45:23.233Z,34.11
2022-07-26T06:46:23.480Z,34.18
2022-07-26T06:47:23.595Z,34.33
2022-07-26T06:48:23.792Z,34.47
2022-07-26T06:49:24.002Z,34.51
2022-07-26T06:50:25.783Z,34.48
2022-07-26T06:51:24.304Z,34.52
2022-07-26T06:52:24.493Z,34.55
2022-07-26T06:53:24.665Z,34.55
2022-07-26T06:54:24.879Z,34.42
2022-07-26T06:55:25.051Z,34.24
2022-07-26T06:56:25.229Z,34.13
2022-07-26T06:57:25.436Z,34.05
2022-07-26T06:58:25.576Z,34.02
2022-07-26T06:59:25.746Z,34.01
2022-07-26T07:00:25.947Z,34.05
2022-07-26T07:01:58.721Z,33.95
2022-07-26T07:02:27.278Z,33.90
2022-07-26T07:03:26.466Z,33.89
2022-07-26T07:04:26.750Z,33.76
2022-07-26T07:05:26.827Z,33.55
2022-07-26T07:06:27.007Z,33.61
2022-07-26T07:07:27.188Z,33.59
2022-07-26T07:08:27.360Z,33.59
2022-07-26T07:09:27.538Z,33.59
2022-07-26T07:10:27.727Z,33.61
2022-07-26T07:11:27.896Z,33.61
2022-07-26T07:12:28.048Z,33.58
2022-07-26T07:13:28.219Z,33.73
2022-07-26T07:14:28.418Z,33.90
2022-07-26T07:15:28.601Z,34.06
2022-07-26T07:16:28.884Z,34.20
2022-07-26T07:17:28.951Z,34.32
2022-07-26T07:18:29.139Z,34.40
2022-07-26T07:19:29.309Z,34.51
2022-07-26T07:20:29.520Z,34.55
2022-07-26T07:21:29.661Z,34.58
2022-07-26T07:22:29.850Z,34.43
2022-07-26T07:23:30.020Z,34.18
2022-07-26T07:24:30.201Z,34.21
2022-07-26T07:25:31.197Z,34.50
2022-07-26T07:26:30.530Z,34.32
2022-07-26T07:27:30.721Z,34.02
2022-07-26T07:28:30.891Z,33.95
2022-07-26T07:29:31.061Z,34.05
2022-07-26T07:30:31.262Z,34.02
2022-07-26T07:31:48.016Z,34.29
2022-07-26T07:32:32.659Z,34.70
2022-07-26T07:33:32.237Z,34.96
2022-07-26T07:34:32.963Z,35.36
2022-07-26T07:35:32.908Z,35.86
2022-07-26T07:36:32.336Z,36.27
2022-07-26T07:37:53.030Z,36.45
2022-07-26T07:38:33.685Z,36.70
2022-07-26T07:39:34.845Z,37.01
2022-07-26T07:40:34.064Z,37.20
2022-07-26T07:41:33.225Z,37.40
2022-07-26T07:42:33.406Z,37.56
2022-07-26T07:43:33.581Z,37.70
2022-07-26T07:44:33.754Z,37.83
2022-07-26T07:45:33.969Z,38.14
2022-07-26T07:46:34.138Z,38.45
2022-07-26T07:47:34.306Z,38.83
2022-07-26T07:48:34.541Z,39.17
2022-07-26T07:49:34.718Z,39.34
2022-07-26T07:50:34.861Z,39.55
2022-07-26T07:51:36.204Z,39.86
2022-07-26T07:52:35.187Z,40.14
2022-07-26T07:53:35.392Z,40.24
2022-07-26T07:54:35.567Z,40.40
2022-07-26T07:55:40.927Z,40.61
2022-07-26T07:56:36.888Z,40.91
2022-07-26T07:57:36.079Z,41.10
2022-07-26T07:58:36.268Z,41.28
2022-07-26T07:59:39.039Z,41.52
2022-07-26T08:00:36.595Z,41.83
2022-07-26T08:01:40.237Z,42.04
2022-07-26T08:02:36.920Z,42.17
2022-07-26T08:03:38.990Z,42.35
2022-07-26T08:04:37.365Z,42.29
2022-07-26T08:05:40.575Z,42.06
2022-07-26T08:06:37.627Z,42.12
2022-07-26T08:07:37.812Z,42.39
2022-07-26T08:08:38.002Z,42.53
2022-07-26T08:09:38.170Z,42.54
2022-07-26T08:10:43.607Z,42.36
2022-07-26T08:11:39.534Z,42.50
2022-07-26T08:12:38.715Z,42.62
2022-07-26T08:13:38.893Z,42.81
2022-07-26T08:14:39.053Z,42.67
2022-07-26T08:15:39.327Z,42.26
2022-07-26T08:16:39.498Z,42.02
2022-07-26T08:17:41.883Z,41.82
2022-07-26T08:18:55.662Z,41.83
2022-07-26T08:19:41.779Z,41.60
2022-07-26T08:20:40.116Z,41.78
2022-07-26T08:21:40.295Z,42.10
2022-07-26T08:22:40.434Z,42.09
2022-07-26T08:23:40.626Z,42.25
2022-07-26T08:24:40.799Z,42.24
2022-07-26T08:25:55.074Z,42.20
2022-07-26T08:26:42.177Z,42.41
2022-07-26T08:27:41.403Z,42.82
2022-07-26T08:28:58.416Z,42.76
2022-07-26T08:29:42.688Z,42.29
2022-07-26T08:30:41.838Z,42.12
2022-07-26T08:31:42.079Z,41.82
2022-07-26T08:32:42.188Z,41.50
2022-07-26T08:33:46.518Z,40.92
2022-07-26T08:34:42.535Z,40.41
2022-07-26T08:35:42.719Z,39.85
2022-07-26T08:37:06.991Z,39.37
2022-07-26T08:37:44.079Z,39.18
2022-07-26T08:38:43.237Z,39.11
2022-07-26T08:39:43.409Z,39.03
2022-07-26T08:40:43.581Z,39.06
2022-07-26T08:41:43.779Z,38.92
2022-07-26T08:42:43.919Z,38.57
2022-07-26T08:43:51.558Z,38.28
2022-07-26T08:44:45.279Z,38.31
2022-07-26T08:45:44.451Z,38.76
2022-07-26T08:46:44.654Z,39.00
2022-07-26T08:48:07.309Z,39.40
2022-07-26T08:48:46.037Z,39.78
2022-07-26T08:49:45.183Z,39.68
2022-07-26T08:50:45.348Z,39.30
2022-07-26T08:51:45.533Z,38.73
2022-07-26T08:52:45.683Z,38.20
2022-07-26T08:53:45.855Z,37.68
2022-07-26T08:54:46.028Z,37.15
2022-07-26T08:56:05.939Z,36.91
2022-07-26T08:56:47.392Z,36.77
2022-07-26T08:57:46.545Z,36.49
2022-07-26T08:58:46.715Z,36.20
2022-07-26T08:59:46.905Z,36.21
2022-07-26T09:00:47.140Z,36.54
2022-07-26T09:01:47.272Z,37.35
2022-07-26T09:02:47.446Z,38.30
2022-07-26T09:03:47.700Z,39.04
2022-07-26T09:04:47.849Z,38.97
2022-07-26T09:05:47.969Z,38.45
2022-07-26T09:06:48.125Z,37.72
2022-07-26T09:07:48.296Z,37.07
2022-07-26T09:08:48.511Z,36.96
2022-07-26T09:09:48.678Z,36.74
2022-07-26T09:10:48.847Z,36.54
2022-07-26T09:11:49.057Z,37.01
2022-07-26T09:12:49.207Z,37.56
2022-07-26T09:13:49.377Z,38.19
2022-07-26T09:14:49.547Z,38.74
2022-07-26T09:15:49.773Z,39.03
2022-07-26T09:16:49.994Z,39.25
2022-07-26T09:17:50.099Z,39.17
2022-07-26T09:18:50.271Z,38.67
2022-07-26T09:19:50.450Z,38.04
2022-07-26T09:20:50.620Z,37.63
2022-07-26T09:21:50.810Z,37.84
2022-07-26T09:22:50.950Z,38.50
2022-07-26T09:23:51.149Z,39.26
2022-07-26T09:24:51.322Z,40.02
2022-07-26T09:25:51.501Z,40.59
2022-07-26T09:26:51.701Z,41.24
2022-07-26T09:27:51.838Z,41.66
2022-07-26T09:28:52.011Z,42.09
2022-07-26T09:29:52.191Z,42.62
2022-07-26T09:30:52.410Z,43.10
2022-07-26T09:31:52.626Z,43.55
2022-07-26T09:32:57.013Z,43.76
2022-07-26T09:33:54.052Z,44.10
2022-07-26T09:34:55.697Z,44.33
2022-07-26T09:35:54.254Z,44.76
2022-07-26T09:36:53.427Z,45.02
2022-07-26T09:37:53.607Z,45.10
2022-07-26T09:38:53.775Z,44.81
2022-07-26T09:39:53.956Z,44.15
2022-07-26T09:40:54.134Z,43.41
2022-07-26T09:42:17.456Z,42.69
2022-07-26T09:42:55.484Z,42.31
2022-07-26T09:43:54.650Z,41.82
2022-07-26T09:44:54.796Z,41.06
2022-07-26T09:45:54.966Z,40.20
2022-07-26T09:46:55.218Z,39.51
2022-07-26T09:47:55.306Z,38.86
2022-07-26T09:49:11.805Z,38.21
2022-07-26T09:49:56.675Z,37.60
2022-07-26T09:50:55.818Z,36.98
2022-07-26T09:51:56.039Z,36.42
2022-07-26T09:52:56.168Z,35.93
2022-07-26T09:53:56.366Z,35.49
2022-07-26T09:54:56.527Z,35.17
2022-07-26T09:55:56.714Z,34.77
2022-07-26T09:56:56.877Z,34.48
2022-07-26T09:57:57.026Z,34.24
2022-07-26T09:58:57.199Z,34.03
2022-07-26T09:59:57.389Z,33.83
2022-07-26T10:01:02.096Z,33.64
2022-07-26T10:01:58.815Z,33.43
2022-07-26T10:02:57.959Z,33.12
2022-07-26T10:03:58.097Z,32.82
2022-07-26T10:04:58.281Z,32.53
2022-07-26T10:05:58.460Z,32.33
2022-07-26T10:06:58.629Z,32.08
2022-07-26T10:07:58.801Z,31.84
2022-07-26T10:08:58.971Z,31.65
2022-07-26T10:09:59.161Z,31.52
2022-07-26T10:10:59.342Z,31.44
2022-07-26T10:11:59.539Z,31.40
2022-07-26T10:12:59.692Z,31.42
2022-07-26T10:13:59.880Z,31.49
2022-07-26T10:15:00.044Z,31.51
2022-07-26T10:16:00.261Z,31.58
2022-07-26T10:17:00.424Z,31.55
2022-07-26T10:18:00.564Z,31.56
2022-07-26T10:19:00.873Z,31.64
2022-07-26T10:20:00.903Z,31.70
2022-07-26T10:21:01.072Z,31.80
2022-07-26T10:22:01.272Z,31.87
2022-07-26T10:23:01.423Z,31.92
2022-07-26T10:24:01.602Z,31.94
2022-07-26T10:25:01.790Z,31.90
2022-07-26T10:26:01.966Z,31.94
2022-07-26T10:27:02.153Z,31.99
2022-07-26T10:28:02.325Z,32.11
2022-07-26T10:29:03.504Z,32.22
2022-07-26T10:30:02.677Z,32.38
2022-07-26T10:31:02.875Z,32.56
2022-07-26T10:32:03.053Z,32.71
2022-07-26T10:33:03.189Z,32.82
2022-07-26T10:34:06.779Z,32.93
2022-07-26T10:35:03.526Z,33.09
2022-07-26T10:36:03.723Z,33.24
2022-07-26T10:37:03.896Z,33.32
2022-07-26T10:38:04.091Z,33.37
2022-07-26T10:39:04.254Z,33.47
2022-07-26T10:40:04.435Z,33.53
2022-07-26T10:41:04.607Z,33.50
2022-07-26T10:42:04.797Z,33.50
2022-07-26T10:43:30.146Z,33.61
2022-07-26T10:44:06.157Z,33.69
2022-07-26T10:45:05.296Z,33.83
2022-07-26T10:46:05.531Z,33.90
2022-07-26T10:47:05.646Z,33.95
2022-07-26T10:48:05.819Z,33.92
2022-07-26T10:49:06.021Z,33.81
2022-07-26T10:50:06.159Z,33.74
2022-07-26T10:51:06.641Z,33.61
2022-07-26T10:52:06.499Z,33.45
2022-07-26T10:53:06.636Z,33.27
2022-07-26T10:54:06.922Z,33.11
2022-07-26T10:55:06.981Z,33.05
2022-07-26T10:56:07.160Z,32.97
2022-07-26T10:57:07.341Z,32.85
2022-07-26T10:58:07.501Z,32.83
2022-07-26T10:59:07.671Z,32.87
2022-07-26T11:00:07.842Z,32.85
2022-07-26T11:01:08.108Z,32.77
2022-07-26T11:02:08.284Z,32.75
2022-07-26T11:03:08.408Z,32.82
2022-07-26T11:04:08.964Z,32.86
2022-07-26T11:05:08.732Z,32.86
2022-07-26T11:06:08.900Z,32.75
2022-07-26T11:07:09.073Z,32.71
2022-07-26T11:08:09.244Z,32.63
2022-07-26T11:09:09.416Z,32.58
2022-07-26T11:10:09.620Z,32.58
2022-07-26T11:11:09.751Z,32.58
2022-07-26T11:12:09.934Z,32.58
2022-07-26T11:13:10.113Z,32.68
2022-07-26T11:14:10.670Z,32.75
2022-07-26T11:15:10.463Z,32.89
2022-07-26T11:16:10.684Z,33.05
2022-07-26T11:17:10.836Z,33.20
2022-07-26T11:18:10.985Z,33.45
2022-07-26T11:19:11.156Z,33.58
2022-07-26T11:20:11.346Z,33.62
2022-07-26T11:21:11.515Z,33.73
2022-07-26T11:22:11.726Z,33.86
2022-07-26T11:23:11.876Z,33.96
2022-07-26T11:24:12.397Z,33.87
2022-07-26T11:25:12.226Z,33.87
2022-07-26T11:26:12.416Z,33.90
2022-07-26T11:27:12.596Z,33.96
2022-07-26T11:28:12.776Z,34.06
2022-07-26T11:29:17.573Z,34.18
2022-07-26T11:30:14.138Z,34.16
2022-07-26T11:31:13.298Z,34.17
2022-07-26T11:32:18.172Z,34.18
2022-07-26T11:33:14.680Z,34.20
2022-07-26T11:34:14.263Z,34.11
2022-07-26T11:35:13.981Z,34.03
2022-07-26T11:36:14.158Z,34.08
2022-07-26T11:37:14.370Z,34.21
2022-07-26T11:38:14.508Z,34.29
2022-07-26T11:39:14.689Z,34.32
2022-07-26T11:40:14.865Z,34.36
2022-07-26T11:41:15.032Z,34.38
2022-07-26T11:42:15.237Z,34.42
2022-07-26T11:43:15.405Z,34.40
2022-07-26T11:44:16.106Z,34.40
2022-07-26T11:45:15.731Z,34.32
2022-07-26T11:46:15.961Z,34.16
2022-07-26T11:47:16.102Z,34.02
2022-07-26T11:48:16.261Z,33.87
2022-07-26T11:49:16.504Z,33.69
2022-07-26T11:50:22.761Z,33.49
2022-07-26T11:51:17.770Z,33.34
2022-07-26T11:52:24.937Z,33.23
2022-07-26T11:53:18.124Z,33.14
2022-07-26T11:54:17.297Z,33.00
2022-07-26T11:55:17.472Z,32.77
2022-07-26T11:56:17.658Z,32.49
2022-07-26T11:57:17.855Z,32.12
2022-07-26T11:58:18.033Z,31.65
2022-07-26T11:59:18.214Z,31.25
2022-07-26T12:00:18.394Z,30.84
2022-07-26T12:01:18.596Z,30.51
2022-07-26T12:02:18.794Z,30.06
2022-07-26T12:03:18.965Z,29.71
2022-07-26T12:04:19.249Z,29.36
2022-07-26T12:05:19.852Z,28.98
2022-07-26T12:06:19.504Z,28.69
2022-07-26T12:07:20.128Z,28.45
2022-07-26T12:08:19.856Z,28.33
2022-07-26T12:09:20.032Z,28.25
2022-07-26T12:10:20.196Z,28.17
2022-07-26T12:11:20.366Z,28.20
2022-07-26T12:12:20.553Z,28.15
2022-07-26T12:13:20.703Z,28.15
2022-07-26T12:14:21.168Z,28.10
2022-07-26T12:15:21.056Z,28.02
2022-07-26T12:16:21.355Z,27.96
2022-07-26T12:17:21.427Z,27.89
2022-07-26T12:18:21.576Z,27.86
2022-07-26T12:19:21.737Z,27.85
2022-07-26T12:20:21.897Z,27.85
2022-07-26T12:21:22.078Z,27.77
2022-07-26T12:22:22.267Z,27.71
2022-07-26T12:23:22.462Z,27.63
2022-07-26T12:24:22.598Z,27.44
2022-07-26T12:25:22.788Z,27.27
2022-07-26T12:26:22.977Z,27.14
2022-07-26T12:27:23.185Z,26.97
2022-07-26T12:28:23.316Z,26.88
2022-07-26T12:29:23.496Z,26.83
2022-07-26T12:30:23.697Z,26.83
2022-07-26T12:31:23.949Z,26.81
2022-07-26T12:32:24.051Z,26.77
2022-07-26T12:33:24.221Z,26.70
2022-07-26T12:34:24.389Z,26.65
2022-07-26T12:35:24.571Z,26.52
2022-07-26T12:36:28.114Z,26.37
2022-07-26T12:37:33.720Z,26.23
2022-07-26T12:38:26.072Z,26.10
2022-07-26T12:39:25.258Z,26.03
2022-07-26T12:40:25.432Z,25.96
2022-07-26T12:41:25.621Z,25.95
2022-07-26T12:42:33.614Z,25.91
2022-07-26T12:43:26.973Z,25.93
2022-07-26T12:44:26.121Z,26.00
2022-07-26T12:45:26.301Z,26.07
2022-07-26T12:46:26.597Z,26.13
2022-07-26T12:47:26.680Z,26.22
2022-07-26T12:48:26.850Z,26.25
2022-07-26T12:49:27.061Z,26.23
2022-07-26T12:50:27.182Z,26.28
2022-07-26T12:51:27.362Z,26.36
2022-07-26T12:52:27.556Z,26.40
2022-07-26T12:53:27.742Z,26.43
2022-07-26T12:54:29.658Z,26.51